Time;durP1;ratioP1;P1;durP2;ratioP2;P2;SDS_P1;SDS_P2;PMS_P1;PMS_P2;Temp;Humidity;BMP_temperature;BMP_pressure;BME280_temperature;BME280_humidity;BME280_pressure;Samples;Min_cycle;Max_cycle;Signal;HPM_P1;HPM_P2
2021/08/29 00:02:17;;;;;;;8.57;7.57;;;;;;;;;;5115382;28;20030;-76
2021/08/29 00:04:43;;;;;;;8.93;8.02;;;;;;;;;;5115479;28;20023;-76
2021/08/29 00:07:09;;;;;;;10.25;8.50;;;;;;;;;;5115645;28;20027;-75
2021/08/29 00:09:35;;;;;;;8.75;7.85;;;;;;;;;;5115239;28;20048;-75
2021/08/29 00:12:01;;;;;;;10.25;8.15;;;;;;;;;;5115086;28;20027;-77
2021/08/29 00:14:28;;;;;;;10.90;8.70;;;;;;;;;;5114959;28;20031;-76
2021/08/29 00:16:54;;;;;;;10.18;7.97;;;;;;;;;;5115029;28;20043;-75
2021/08/29 00:19:20;;;;;;;9.40;8.35;;;;;;;;;;5114141;28;20096;-76
2021/08/29 00:21:46;;;;;;;11.02;8.27;;;;;;;;;;5115069;28;20026;-74
2021/08/29 00:24:12;;;;;;;10.93;8.23;;;;;;;;;;5115030;28;20036;-76
2021/08/29 00:26:38;;;;;;;8.98;7.68;;;;;;;;;;5113663;28;20019;-77
2021/08/29 00:29:04;;;;;;;8.63;7.78;;;;;;;;;;5114969;28;20027;-76
2021/08/29 00:31:30;;;;;;;9.32;7.53;;;;;;;;;;5114928;28;20039;-77
2021/08/29 00:33:56;;;;;;;9.95;7.57;;;;;;;;;;5114763;28;20032;-75
2021/08/29 00:36:23;;;;;;;10.02;8.70;;;;;;;;;;5114892;28;20023;-76
2021/08/29 00:38:49;;;;;;;9.80;8.40;;;;;;;;;;5114466;28;20436;-75
2021/08/29 00:41:15;;;;;;;11.55;7.70;;;;;;;;;;5114720;28;20094;-76
2021/08/29 00:43:41;;;;;;;10.15;7.35;;;;;;;;;;5114586;28;20088;-76
2021/08/29 00:46:08;;;;;;;8.93;8.02;;;;;;;;;;5114514;28;20478;-77
2021/08/29 00:48:35;;;;;;;9.50;8.45;;;;;;;;;;5114783;28;20042;-74
2021/08/29 00:51:01;;;;;;;9.98;8.05;;;;;;;;;;5114733;28;20098;-76
2021/08/29 00:53:30;;;;;;;9.18;7.45;;;;;;;;;;5114443;28;20036;-76
2021/08/29 00:55:56;;;;;;;8.60;7.10;;;;;;;;;;5114334;28;20542;-77
2021/08/29 00:58:22;;;;;;;8.57;7.68;;;;;;;;;;5114346;28;20037;-75
2021/08/29 01:00:51;;;;;;;8.30;7.50;;;;;;;;;;5114220;28;20403;-77
2021/08/29 01:03:28;;;;;;;9.80;8.25;;;;;;;;;;5114285;28;20028;-76
2021/08/29 01:06:17;;;;;;;9.32;7.43;;;;;;;;;;5114230;28;20363;-75
2021/08/29 01:08:43;;;;;;;9.32;8.15;;;;;;;;;;5103933;28;20035;-75
2021/08/29 01:11:18;;;;;;;10.15;8.48;;;;;;;;;;5114262;28;20028;-75
2021/08/29 01:13:48;;;;;;;9.32;8.35;;;;;;;;;;5113992;28;20058;-78
2021/08/29 01:16:16;;;;;;;10.15;8.05;;;;;;;;;;5114160;28;20099;-77
2021/08/29 01:18:44;;;;;;;10.27;8.45;;;;;;;;;;5114047;28;20031;-76
2021/08/29 01:21:12;;;;;;;10.27;8.07;;;;;;;;;;5114070;28;20517;-77
2021/08/29 01:23:39;;;;;;;10.80;8.50;;;;;;;;;;5114015;28;20031;-75
2021/08/29 01:26:24;;;;;;;9.70;8.45;;;;;;;;;;5113746;28;20035;-77
2021/08/29 01:28:54;;;;;;;8.52;7.63;;;;;;;;;;5113650;28;20478;-75
2021/08/29 01:31:21;;;;;;;10.25;8.27;;;;;;;;;;5113666;28;20035;-75
2021/08/29 01:33:48;;;;;;;9.30;8.30;;;;;;;;;;5113781;28;20027;-78
2021/08/29 01:36:15;;;;;;;12.57;8.38;;;;;;;;;;5113835;28;20063;-76
2021/08/29 01:38:42;;;;;;;10.60;8.05;;;;;;;;;;5113617;28;20055;-75
2021/08/29 01:41:10;;;;;;;8.52;7.53;;;;;;;;;;5113944;28;20027;-76
2021/08/29 01:43:36;;;;;;;9.68;7.93;;;;;;;;;;5113762;28;20073;-76
2021/08/29 01:46:02;;;;;;;9.85;7.88;;;;;;;;;;5113703;28;20038;-76
2021/08/29 01:48:29;;;;;;;10.15;8.38;;;;;;;;;;5113792;28;20027;-74
2021/08/29 01:50:55;;;;;;;11.63;9.30;;;;;;;;;;5113669;28;20027;-76
2021/08/29 01:53:21;;;;;;;8.95;8.05;;;;;;;;;;5113623;28;20043;-75
2021/08/29 01:55:49;;;;;;;10.43;7.53;;;;;;;;;;5113748;28;20413;-76
2021/08/29 01:58:15;;;;;;;8.98;7.85;;;;;;;;;;5113547;28;20032;-74
2021/08/29 02:01:00;;;;;;;10.90;7.90;;;;;;;;;;5113581;28;20571;-75
2021/08/29 02:03:27;;;;;;;10.55;8.13;;;;;;;;;;5113581;28;20023;-75
2021/08/29 02:05:55;;;;;;;9.75;8.40;;;;;;;;;;5113535;28;20031;-75
2021/08/29 02:08:21;;;;;;;9.70;7.72;;;;;;;;;;5113512;28;20382;-76
2021/08/29 02:10:50;;;;;;;9.73;8.60;;;;;;;;;;5113377;28;20031;-76
2021/08/29 02:13:16;;;;;;;9.65;8.45;;;;;;;;;;5113482;28;20103;-76
2021/08/29 02:15:45;;;;;;;11.88;8.27;;;;;;;;;;5113591;28;20043;-76
2021/08/29 02:18:12;;;;;;;10.10;8.52;;;;;;;;;;5113459;28;20034;-74
2021/08/29 02:20:39;;;;;;;10.60;9.43;;;;;;;;;;5113506;28;20501;-76
2021/08/29 02:23:06;;;;;;;10.15;8.70;;;;;;;;;;5113608;28;20031;-74
2021/08/29 02:25:33;;;;;;;9.93;8.93;;;;;;;;;;5113572;28;20031;-74
2021/08/29 02:27:59;;;;;;;10.35;9.07;;;;;;;;;;5113493;28;20039;-75
2021/08/29 02:30:26;;;;;;;9.65;8.60;;;;;;;;;;5113479;28;20030;-76
2021/08/29 02:32:53;;;;;;;9.90;8.52;;;;;;;;;;5113189;28;20039;-76
2021/08/29 02:35:19;;;;;;;11.25;9.65;;;;;;;;;;5113298;28;20478;-74
2021/08/29 02:37:45;;;;;;;10.48;9.40;;;;;;;;;;5113327;28;20432;-76
2021/08/29 02:40:12;;;;;;;10.85;8.43;;;;;;;;;;5113256;28;20542;-75
2021/08/29 02:42:38;;;;;;;9.80;8.80;;;;;;;;;;5115187;28;20023;-77
2021/08/29 02:45:06;;;;;;;10.05;9.05;;;;;;;;;;5116828;28;20027;-78
2021/08/29 02:47:32;;;;;;;11.80;9.30;;;;;;;;;;5116935;28;20414;-75
2021/08/29 02:49:59;;;;;;;11.05;9.95;;;;;;;;;;5117016;28;20027;-75
2021/08/29 02:52:25;;;;;;;10.57;9.55;;;;;;;;;;5116707;28;20027;-76
2021/08/29 02:54:51;;;;;;;11.43;10.27;;;;;;;;;;5116938;28;20028;-76
2021/08/29 02:57:18;;;;;;;16.35;10.85;;;;;;;;;;5116739;28;20020;-76
2021/08/29 02:59:44;;;;;;;10.68;9.68;;;;;;;;;;5116488;28;20024;-78
2021/08/29 03:02:11;;;;;;;11.85;9.90;;;;;;;;;;5116276;28;20050;-76
2021/08/29 03:04:37;;;;;;;10.90;9.90;;;;;;;;;;5116431;28;20102;-75
2021/08/29 03:07:04;;;;;;;11.65;10.60;;;;;;;;;;5116557;28;20025;-75
2021/08/29 03:09:33;;;;;;;11.85;10.50;;;;;;;;;;5116628;28;20030;-75
2021/08/29 03:12:02;;;;;;;12.07;10.88;;;;;;;;;;5116346;28;20027;-75
2021/08/29 03:14:28;;;;;;;12.13;10.93;;;;;;;;;;5116387;28;20060;-75
2021/08/29 03:16:54;;;;;;;12.75;11.45;;;;;;;;;;5116297;28;20521;-74
2021/08/29 03:19:20;;;;;;;12.43;11.13;;;;;;;;;;5116497;28;20072;-75
2021/08/29 03:21:46;;;;;;;12.68;11.38;;;;;;;;;;5116205;28;20036;-75
2021/08/29 03:24:13;;;;;;;13.60;12.20;;;;;;;;;;5116234;28;20047;-75
2021/08/29 03:26:43;;;;;;;12.65;11.45;;;;;;;;;;5116085;28;20042;-75
2021/08/29 03:29:10;;;;;;;12.55;11.25;;;;;;;;;;5116165;28;20057;-75
2021/08/29 03:31:36;;;;;;;13.40;12.02;;;;;;;;;;5115982;28;20522;-74
2021/08/29 03:34:02;;;;;;;13.10;11.80;;;;;;;;;;5115832;28;20035;-75
2021/08/29 03:36:31;;;;;;;13.02;11.77;;;;;;;;;;5115991;28;20028;-75
2021/08/29 03:38:58;;;;;;;13.25;11.93;;;;;;;;;;5116016;28;20047;-74
2021/08/29 03:41:24;;;;;;;17.90;16.20;;;;;;;;;;5116071;28;20026;-75
2021/08/29 03:43:50;;;;;;;15.07;13.60;;;;;;;;;;5115895;28;20027;-74
2021/08/29 03:46:16;;;;;;;14.38;12.98;;;;;;;;;;5115839;28;20069;-74
2021/08/29 03:48:44;;;;;;;13.35;12.05;;;;;;;;;;5115974;28;20495;-75
2021/08/29 03:51:10;;;;;;;12.77;11.48;;;;;;;;;;5115740;28;20051;-75
2021/08/29 03:53:38;;;;;;;13.15;11.88;;;;;;;;;;5115317;28;20035;-76
2021/08/29 03:56:05;;;;;;;15.73;14.10;;;;;;;;;;5115385;28;20462;-75
2021/08/29 03:58:33;;;;;;;14.23;12.82;;;;;;;;;;5115373;28;20032;-75
2021/08/29 04:00:59;;;;;;;14.00;12.55;;;;;;;;;;5115522;28;20040;-78
2021/08/29 04:03:25;;;;;;;14.15;12.32;;;;;;;;;;5114150;28;20390;-75
2021/08/29 04:05:52;;;;;;;13.40;12.15;;;;;;;;;;5115402;28;20032;-75
2021/08/29 04:08:20;;;;;;;14.82;13.35;;;;;;;;;;5115261;28;20054;-75
2021/08/29 04:10:47;;;;;;;13.90;12.43;;;;;;;;;;5115188;28;20110;-76
2021/08/29 04:13:14;;;;;;;15.88;12.82;;;;;;;;;;5115246;28;20387;-77
2021/08/29 04:15:41;;;;;;;13.82;12.43;;;;;;;;;;5115162;28;20489;-76
2021/08/29 04:18:09;;;;;;;13.70;12.38;;;;;;;;;;5115229;28;20031;-75
2021/08/29 04:20:35;;;;;;;14.15;12.70;;;;;;;;;;5115083;28;20028;-75
2021/08/29 04:23:02;;;;;;;13.75;12.35;;;;;;;;;;5115047;28;20482;-76
2021/08/29 04:25:28;;;;;;;15.18;12.75;;;;;;;;;;5115009;28;20024;-74
2021/08/29 04:27:54;;;;;;;14.43;12.98;;;;;;;;;;5113811;28;20035;-75
2021/08/29 04:30:21;;;;;;;14.68;13.27;;;;;;;;;;5114987;28;20137;-76
2021/08/29 04:32:49;;;;;;;14.88;13.45;;;;;;;;;;5114794;28;20036;-75
2021/08/29 04:35:16;;;;;;;14.10;12.13;;;;;;;;;;5114887;28;20024;-76
2021/08/29 04:37:42;;;;;;;14.00;12.70;;;;;;;;;;5114673;28;20044;-75
2021/08/29 04:40:08;;;;;;;13.40;12.13;;;;;;;;;;5114737;28;20031;-77
2021/08/29 04:42:34;;;;;;;15.25;13.75;;;;;;;;;;5114947;28;20034;-76
2021/08/29 04:45:00;;;;;;;15.15;13.32;;;;;;;;;;5114598;28;20066;-76
2021/08/29 04:47:26;;;;;;;14.80;12.80;;;;;;;;;;5114635;28;20047;-76
2021/08/29 04:49:52;;;;;;;14.43;13.02;;;;;;;;;;5114558;28;20038;-77
2021/08/29 04:52:18;;;;;;;15.00;13.50;;;;;;;;;;5114455;28;20026;-76
2021/08/29 04:54:45;;;;;;;14.10;12.70;;;;;;;;;;5114418;28;20020;-75
2021/08/29 04:57:11;;;;;;;15.35;13.52;;;;;;;;;;5114394;28;20049;-76
2021/08/29 04:59:37;;;;;;;14.45;13.05;;;;;;;;;;5114095;28;20110;-77
2021/08/29 05:02:03;;;;;;;18.52;16.67;;;;;;;;;;5114576;28;20421;-76
2021/08/29 05:04:29;;;;;;;13.65;12.32;;;;;;;;;;5113743;28;20019;-75
2021/08/29 05:06:55;;;;;;;16.10;14.27;;;;;;;;;;5114189;28;20475;-76
2021/08/29 05:09:21;;;;;;;14.43;12.95;;;;;;;;;;5114461;28;20028;-75
2021/08/29 05:11:47;;;;;;;16.40;14.75;;;;;;;;;;5114173;28;20144;-76
2021/08/29 05:14:14;;;;;;;15.10;13.35;;;;;;;;;;5114111;28;20039;-76
2021/08/29 05:16:40;;;;;;;14.35;12.23;;;;;;;;;;5114582;28;20374;-75
2021/08/29 05:19:06;;;;;;;15.00;13.60;;;;;;;;;;5114119;28;20099;-76
2021/08/29 05:21:32;;;;;;;14.50;13.18;;;;;;;;;;5114219;28;20080;-75
2021/08/29 05:23:58;;;;;;;16.00;14.35;;;;;;;;;;5113979;28;20458;-75
2021/08/29 05:26:24;;;;;;;15.13;13.63;;;;;;;;;;5114000;28;20028;-75
2021/08/29 05:28:50;;;;;;;18.13;16.42;;;;;;;;;;5114128;28;20066;-76
2021/08/29 05:31:16;;;;;;;15.57;13.93;;;;;;;;;;5113958;28;20161;-74
2021/08/29 05:33:42;;;;;;;15.90;14.18;;;;;;;;;;5113753;28;20507;-75
2021/08/29 05:36:09;;;;;;;15.73;14.13;;;;;;;;;;5113366;28;20403;-74
2021/08/29 05:38:35;;;;;;;17.30;14.77;;;;;;;;;;5113776;28;20437;-76
2021/08/29 05:41:01;;;;;;;14.82;13.32;;;;;;;;;;5113811;28;20031;-76
2021/08/29 05:43:27;;;;;;;15.38;13.77;;;;;;;;;;5113899;28;20034;-77
2021/08/29 05:45:53;;;;;;;14.48;12.98;;;;;;;;;;5113951;28;20035;-75
2021/08/29 05:48:19;;;;;;;14.70;13.32;;;;;;;;;;5113679;28;20073;-76
2021/08/29 05:50:45;;;;;;;14.30;12.82;;;;;;;;;;5113736;28;20028;-76
2021/08/29 05:53:11;;;;;;;15.48;13.98;;;;;;;;;;5112489;28;20383;-75
2021/08/29 05:55:37;;;;;;;15.15;13.73;;;;;;;;;;5113682;28;20470;-76
2021/08/29 05:58:04;;;;;;;14.93;13.43;;;;;;;;;;5113649;28;20530;-75
2021/08/29 06:00:30;;;;;;;14.98;13.57;;;;;;;;;;5113702;28;20090;-76
2021/08/29 06:02:56;;;;;;;15.80;14.13;;;;;;;;;;5113597;28;20034;-77
2021/08/29 06:05:22;;;;;;;16.15;14.60;;;;;;;;;;5113579;28;20035;-76
2021/08/29 06:07:48;;;;;;;14.73;13.23;;;;;;;;;;5113613;28;20047;-76
2021/08/29 06:10:14;;;;;;;16.35;14.85;;;;;;;;;;5113533;28;20031;-75
2021/08/29 06:12:40;;;;;;;15.07;13.48;;;;;;;;;;5113453;28;20489;-75
2021/08/29 06:15:07;;;;;;;15.13;13.63;;;;;;;;;;5113596;28;20023;-76
2021/08/29 06:17:34;;;;;;;14.80;13.40;;;;;;;;;;5115335;28;20024;-76
2021/08/29 06:20:00;;;;;;;15.38;13.88;;;;;;;;;;5117460;28;20032;-75
2021/08/29 06:22:26;;;;;;;15.50;13.60;;;;;;;;;;5117321;28;20035;-76
2021/08/29 06:24:52;;;;;;;17.35;14.27;;;;;;;;;;5117598;28;20031;-75
2021/08/29 06:27:18;;;;;;;15.07;13.57;;;;;;;;;;5117409;28;20485;-75
2021/08/29 06:29:44;;;;;;;15.75;14.25;;;;;;;;;;5117315;28;20106;-76
2021/08/29 06:32:10;;;;;;;15.43;13.93;;;;;;;;;;5117130;28;20351;-75
2021/08/29 06:34:36;;;;;;;22.70;20.35;;;;;;;;;;5117312;28;20085;-78
2021/08/29 06:37:03;;;;;;;18.10;16.08;;;;;;;;;;5117090;28;20028;-75
2021/08/29 06:39:29;;;;;;;16.40;14.70;;;;;;;;;;5117063;28;20498;-77
2021/08/29 06:41:55;;;;;;;15.10;13.80;;;;;;;;;;5117075;28;20035;-76
2021/08/29 06:44:21;;;;;;;15.07;13.65;;;;;;;;;;5116917;28;20086;-76
2021/08/29 06:46:47;;;;;;;15.27;13.68;;;;;;;;;;5116937;28;20027;-75
2021/08/29 06:49:13;;;;;;;14.45;13.15;;;;;;;;;;5116956;28;20500;-75
2021/08/29 06:51:40;;;;;;;15.70;14.10;;;;;;;;;;5117020;28;20019;-76
2021/08/29 06:54:06;;;;;;;15.38;13.88;;;;;;;;;;5116795;28;20042;-77
2021/08/29 06:56:32;;;;;;;16.50;14.82;;;;;;;;;;5116705;28;20130;-75
2021/08/29 06:58:58;;;;;;;16.98;15.27;;;;;;;;;;5116892;28;20446;-76
2021/08/29 07:01:24;;;;;;;14.00;12.60;;;;;;;;;;5116546;28;20031;-76
2021/08/29 07:03:50;;;;;;;14.95;13.30;;;;;;;;;;5116697;28;20023;-76
2021/08/29 07:06:16;;;;;;;14.38;12.98;;;;;;;;;;5116575;28;20027;-75
2021/08/29 07:08:42;;;;;;;14.73;13.32;;;;;;;;;;5116650;28;20027;-77
2021/08/29 07:11:08;;;;;;;15.00;13.50;;;;;;;;;;5116498;28;20459;-76
2021/08/29 07:13:35;;;;;;;14.35;12.88;;;;;;;;;;5116298;28;20032;-76
2021/08/29 07:16:01;;;;;;;16.45;13.65;;;;;;;;;;5116386;28;20023;-76
2021/08/29 07:18:27;;;;;;;14.38;12.95;;;;;;;;;;5116247;28;20382;-76
2021/08/29 07:20:53;;;;;;;13.52;12.15;;;;;;;;;;5116437;28;20375;-76
2021/08/29 07:23:19;;;;;;;15.38;13.52;;;;;;;;;;5116291;28;20027;-75
2021/08/29 07:25:46;;;;;;;13.45;12.15;;;;;;;;;;5116115;28;20383;-76
2021/08/29 07:28:12;;;;;;;13.52;12.15;;;;;;;;;;5115362;28;20024;-75
2021/08/29 07:30:38;;;;;;;14.73;13.23;;;;;;;;;;5115670;28;20024;-76
2021/08/29 07:33:04;;;;;;;13.60;12.30;;;;;;;;;;5116235;28;20035;-74
2021/08/29 07:35:30;;;;;;;14.00;12.50;;;;;;;;;;5116309;28;20088;-76
2021/08/29 07:37:56;;;;;;;14.32;13.02;;;;;;;;;;5115922;28;20096;-76
2021/08/29 07:40:22;;;;;;;13.00;11.63;;;;;;;;;;5115837;28;20436;-76
2021/08/29 07:42:49;;;;;;;14.02;12.63;;;;;;;;;;5115904;28;20563;-76
2021/08/29 07:45:15;;;;;;;12.65;11.38;;;;;;;;;;5115704;28;20020;-76
2021/08/29 07:47:41;;;;;;;12.77;11.30;;;;;;;;;;5115782;28;20099;-77
2021/08/29 07:50:08;;;;;;;15.13;12.00;;;;;;;;;;5115864;28;20051;-75
2021/08/29 07:52:34;;;;;;;13.07;11.73;;;;;;;;;;5115752;28;20111;-76
2021/08/29 07:55:00;;;;;;;11.52;10.30;;;;;;;;;;5115852;28;20443;-76
2021/08/29 07:57:26;;;;;;;12.25;11.05;;;;;;;;;;5115623;28;20467;-78
2021/08/29 07:59:52;;;;;;;12.02;10.70;;;;;;;;;;5113810;28;20053;-75
2021/08/29 08:02:18;;;;;;;12.93;11.32;;;;;;;;;;5115589;28;20039;-74
2021/08/29 08:04:44;;;;;;;12.88;11.57;;;;;;;;;;5115347;28;20382;-75
2021/08/29 08:07:12;;;;;;;11.48;9.95;;;;;;;;;;5115338;28;20031;-75
2021/08/29 08:09:38;;;;;;;11.93;10.55;;;;;;;;;;5115379;28;20470;-76
2021/08/29 08:12:04;;;;;;;11.98;10.70;;;;;;;;;;5114958;28;20028;-77
2021/08/29 08:14:30;;;;;;;10.48;9.38;;;;;;;;;;5115016;28;20031;-75
2021/08/29 08:16:57;;;;;;;11.82;10.52;;;;;;;;;;5115285;28;20027;-76
2021/08/29 08:19:23;;;;;;;11.52;10.38;;;;;;;;;;5115007;28;20061;-74
2021/08/29 08:21:49;;;;;;;12.88;11.30;;;;;;;;;;5115022;28;20053;-75
2021/08/29 08:24:15;;;;;;;11.73;10.55;;;;;;;;;;5115053;28;20099;-75
2021/08/29 08:26:41;;;;;;;12.02;10.48;;;;;;;;;;5114980;28;20102;-75
2021/08/29 08:29:07;;;;;;;17.33;10.15;;;;;;;;;;5115126;28;20103;-76
2021/08/29 08:31:33;;;;;;;12.10;10.38;;;;;;;;;;5114589;28;20084;-75
2021/08/29 08:33:59;;;;;;;12.73;9.98;;;;;;;;;;5114926;28;20035;-75
2021/08/29 08:36:26;;;;;;;11.15;9.57;;;;;;;;;;5114867;28;20096;-77
2021/08/29 08:38:52;;;;;;;10.20;9.05;;;;;;;;;;5112986;28;20089;-76
2021/08/29 08:41:21;;;;;;;10.95;9.57;;;;;;;;;;5114034;28;20027;-77
2021/08/29 08:43:47;;;;;;;12.15;10.43;;;;;;;;;;5114734;28;20498;-76
2021/08/29 08:46:13;;;;;;;10.07;8.95;;;;;;;;;;5114451;28;20470;-75
2021/08/29 08:48:41;;;;;;;11.40;9.07;;;;;;;;;;5114607;28;20146;-76
2021/08/29 08:51:12;;;;;;;10.05;8.80;;;;;;;;;;5114522;28;20034;-77
2021/08/29 08:53:40;;;;;;;10.77;9.55;;;;;;;;;;5114397;28;20034;-76
2021/08/29 08:56:06;;;;;;;11.15;8.73;;;;;;;;;;5114252;28;20027;-77
2021/08/29 08:58:39;;;;;;;10.13;9.13;;;;;;;;;;5114234;28;20035;-76
2021/08/29 09:01:06;;;;;;;11.32;9.57;;;;;;;;;;5113987;28;20520;-78
2021/08/29 09:03:33;;;;;;;12.88;9.60;;;;;;;;;;5114317;28;20039;-77
2021/08/29 09:05:59;;;;;;;9.02;8.10;;;;;;;;;;5114200;28;20032;-75
2021/08/29 09:08:25;;;;;;;10.15;8.80;;;;;;;;;;5113870;28;20076;-75
2021/08/29 09:10:51;;;;;;;11.45;8.82;;;;;;;;;;5114225;28;20493;-76
2021/08/29 09:13:17;;;;;;;10.40;9.23;;;;;;;;;;5113928;28;20039;-75
2021/08/29 09:15:44;;;;;;;9.43;8.50;;;;;;;;;;5114208;28;20471;-76
2021/08/29 09:18:11;;;;;;;10.13;7.95;;;;;;;;;;5114114;28;20117;-76
2021/08/29 09:20:39;;;;;;;10.38;9.05;;;;;;;;;;5114093;28;20045;-76
2021/08/29 09:23:07;;;;;;;9.80;8.80;;;;;;;;;;5113829;28;20027;-76
2021/08/29 09:25:40;;;;;;;9.07;8.20;;;;;;;;;;5112520;28;20039;-76
2021/08/29 09:28:08;;;;;;;12.07;9.57;;;;;;;;;;5113877;28;20576;-77
2021/08/29 09:30:34;;;;;;;9.23;8.13;;;;;;;;;;5113859;28;20034;-76
2021/08/29 09:33:04;;;;;;;8.63;7.68;;;;;;;;;;5113788;28;20027;-76
2021/08/29 09:35:35;;;;;;;9.82;8.65;;;;;;;;;;5113707;28;20028;-78
2021/08/29 09:38:02;;;;;;;9.05;7.97;;;;;;;;;;5113697;28;20128;-77
2021/08/29 09:40:30;;;;;;;11.10;8.40;;;;;;;;;;5113906;28;20039;-76
2021/08/29 09:42:58;;;;;;;8.48;7.68;;;;;;;;;;5113985;28;20065;-77
2021/08/29 09:45:25;;;;;;;9.40;7.82;;;;;;;;;;5113699;28;20106;-76
2021/08/29 09:47:52;;;;;;;9.73;8.48;;;;;;;;;;5113762;28;20447;-77
2021/08/29 09:50:21;;;;;;;10.88;8.98;;;;;;;;;;5113571;28;20032;-76
2021/08/29 09:52:47;;;;;;;9.40;8.40;;;;;;;;;;5118400;28;20031;-76
2021/08/29 09:55:14;;;;;;;9.32;8.32;;;;;;;;;;5118792;28;20024;-75
2021/08/29 09:57:40;;;;;;;9.45;8.45;;;;;;;;;;5118835;28;20046;-77
2021/08/29 10:00:09;;;;;;;8.77;7.88;;;;;;;;;;5119860;28;20060;-76
2021/08/29 10:02:36;;;;;;;8.73;7.93;;;;;;;;;;5121435;28;20094;-77
2021/08/29 10:05:14;;;;;;;9.75;8.63;;;;;;;;;;5117983;28;20020;-75
2021/08/29 10:07:55;;;;;;;10.15;8.35;;;;;;;;;;5117805;28;20034;-77
2021/08/29 10:10:22;;;;;;;9.13;8.23;;;;;;;;;;5117701;28;20049;-75
2021/08/29 10:12:49;;;;;;;8.48;7.57;;;;;;;;;;5117606;28;20474;-75
2021/08/29 10:15:17;;;;;;;8.52;7.63;;;;;;;;;;5117473;28;20027;-77
2021/08/29 10:17:44;;;;;;;10.38;8.15;;;;;;;;;;5117679;28;20071;-76
2021/08/29 10:20:12;;;;;;;8.50;7.60;;;;;;;;;;5117551;28;20035;-75
2021/08/29 10:22:39;;;;;;;9.07;7.65;;;;;;;;;;5117520;28;20020;-77
2021/08/29 10:25:05;;;;;;;8.98;8.07;;;;;;;;;;5117411;28;20022;-78
2021/08/29 10:27:34;;;;;;;9.73;8.73;;;;;;;;;;5117308;28;20145;-75
2021/08/29 10:30:02;;;;;;;8.75;7.85;;;;;;;;;;5117206;28;20049;-75
2021/08/29 10:32:35;;;;;;;7.97;7.07;;;;;;;;;;5117189;28;20030;-77
2021/08/29 10:35:07;;;;;;;8.38;7.50;;;;;;;;;;5117209;28;20103;-77
2021/08/29 10:37:37;;;;;;;9.13;7.28;;;;;;;;;;5117055;28;20067;-76
2021/08/29 10:40:08;;;;;;;8.98;8.10;;;;;;;;;;5116867;28;20085;-77
2021/08/29 10:42:38;;;;;;;8.90;7.13;;;;;;;;;;5117227;28;20476;-76
2021/08/29 10:45:05;;;;;;;7.22;6.45;;;;;;;;;;5116872;28;20528;-76
2021/08/29 10:47:31;;;;;;;8.82;7.30;;;;;;;;;;5116925;28;20045;-75
2021/08/29 10:49:59;;;;;;;7.82;7.07;;;;;;;;;;5116908;28;20026;-76
2021/08/29 10:52:29;;;;;;;7.78;7.00;;;;;;;;;;5116856;28;20474;-76
2021/08/29 10:54:56;;;;;;;13.25;7.68;;;;;;;;;;5116714;28;20039;-76
2021/08/29 10:57:32;;;;;;;9.32;8.32;;;;;;;;;;5116704;28;20035;-77
2021/08/29 11:00:10;;;;;;;8.88;7.80;;;;;;;;;;5115436;28;20035;-76
2021/08/29 11:02:46;;;;;;;9.07;8.23;;;;;;;;;;5115756;28;20024;-77
2021/08/29 11:05:14;;;;;;;8.38;7.55;;;;;;;;;;5116486;28;20081;-77
2021/08/29 11:07:42;;;;;;;9.82;8.82;;;;;;;;;;5116651;28;20038;-76
2021/08/29 11:10:10;;;;;;;8.70;7.53;;;;;;;;;;5116553;28;20080;-76
2021/08/29 11:12:37;;;;;;;9.75;7.38;;;;;;;;;;5116283;28;20020;-76
2021/08/29 11:15:04;;;;;;;9.82;8.20;;;;;;;;;;5116385;28;20027;-76
2021/08/29 11:17:32;;;;;;;12.10;10.95;;;;;;;;;;5116371;28;20028;-77
2021/08/29 11:20:17;;;;;;;11.63;9.10;;;;;;;;;;5116157;28;20169;-76
2021/08/29 11:22:50;;;;;;;8.50;7.70;;;;;;;;;;5116548;28;20493;-77
2021/08/29 11:25:19;;;;;;;8.83;7.40;;;;;;;;;;5116291;28;20031;-78
2021/08/29 11:27:47;;;;;;;7.43;6.65;;;;;;;;;;5116187;28;20035;-76
2021/08/29 11:30:15;;;;;;;7.82;6.93;;;;;;;;;;5116012;28;20431;-76
2021/08/29 11:32:44;;;;;;;8.48;7.43;;;;;;;;;;5116013;28;20027;-77
2021/08/29 11:35:10;;;;;;;7.35;6.65;;;;;;;;;;5115845;28;20391;-76
2021/08/29 11:37:36;;;;;;;8.20;6.57;;;;;;;;;;5115682;28;20466;-76
2021/08/29 11:40:04;;;;;;;7.97;7.18;;;;;;;;;;5114500;28;20039;-75
2021/08/29 11:42:30;;;;;;;7.47;6.40;;;;;;;;;;5116022;28;20050;-76
2021/08/29 11:44:57;;;;;;;7.57;6.82;;;;;;;;;;5115838;28;20034;-76
2021/08/29 11:47:23;;;;;;;8.20;7.35;;;;;;;;;;5115959;28;20030;-77
2021/08/29 11:50:11;;;;;;;6.55;5.95;;;;;;;;;;5115749;28;20482;-76
2021/08/29 11:52:38;;;;;;;7.90;6.72;;;;;;;;;;5115493;28;20046;-76
2021/08/29 11:55:09;;;;;;;6.30;5.70;;;;;;;;;;5115579;28;20028;-77
2021/08/29 11:57:55;;;;;;;7.55;6.45;;;;;;;;;;5115809;28;20497;-77
2021/08/29 12:00:25;;;;;;;7.75;6.97;;;;;;;;;;5115661;28;20050;-77
2021/08/29 12:02:55;;;;;;;7.68;6.45;;;;;;;;;;5115440;28;20054;-76
2021/08/29 12:05:21;;;;;;;7.10;6.00;;;;;;;;;;5115548;28;20026;-76
2021/08/29 12:07:57;;;;;;;5.90;5.40;;;;;;;;;;5115287;28;20053;-76
2021/08/29 12:10:24;;;;;;;9.13;6.82;;;;;;;;;;5115393;28;20513;-77
2021/08/29 12:12:51;;;;;;;6.47;5.05;;;;;;;;;;5115468;28;20069;-76
2021/08/29 12:15:18;;;;;;;7.57;5.75;;;;;;;;;;5115024;28;20028;-76
2021/08/29 12:17:44;;;;;;;7.40;6.10;;;;;;;;;;5114163;28;20031;-76
2021/08/29 12:20:11;;;;;;;6.93;5.65;;;;;;;;;;5115103;28;20604;-77
2021/08/29 12:22:37;;;;;;;6.45;5.63;;;;;;;;;;5115148;28;20141;-76
2021/08/29 12:25:04;;;;;;;6.68;5.63;;;;;;;;;;5115082;28;20096;-76
2021/08/29 12:27:30;;;;;;;8.57;6.35;;;;;;;;;;5115267;28;20023;-77
2021/08/29 12:29:58;;;;;;;6.70;6.03;;;;;;;;;;5114815;28;20106;-77
2021/08/29 12:32:25;;;;;;;7.47;6.78;;;;;;;;;;5114885;28;20020;-76
2021/08/29 12:34:52;;;;;;;7.25;6.10;;;;;;;;;;5114729;28;20097;-76
2021/08/29 12:37:19;;;;;;;6.88;6.00;;;;;;;;;;5114656;28;20019;-76
2021/08/29 12:39:55;;;;;;;9.13;5.40;;;;;;;;;;5114768;28;20034;-77
2021/08/29 12:42:22;;;;;;;6.22;5.32;;;;;;;;;;5114583;28;20023;-77
2021/08/29 12:44:49;;;;;;;6.22;5.00;;;;;;;;;;5114666;28;20023;-76
2021/08/29 12:47:15;;;;;;;6.93;5.40;;;;;;;;;;5114583;27;20113;-75
2021/08/29 12:49:42;;;;;;;5.88;4.82;;;;;;;;;;5114857;28;20047;-77
2021/08/29 12:52:12;;;;;;;6.85;4.95;;;;;;;;;;5114675;28;20061;-79
2021/08/29 12:54:38;;;;;;;6.40;5.28;;;;;;;;;;5114565;28;20028;-77
2021/08/29 12:57:04;;;;;;;5.38;4.85;;;;;;;;;;5114414;28;20112;-77
2021/08/29 12:59:31;;;;;;;5.88;5.25;;;;;;;;;;5114351;28;20479;-76
2021/08/29 13:01:57;;;;;;;7.15;5.32;;;;;;;;;;5114122;28;20432;-76
2021/08/29 13:04:27;;;;;;;6.20;5.43;;;;;;;;;;5114445;28;20023;-75
2021/08/29 13:07:02;;;;;;;8.05;5.70;;;;;;;;;;5114428;28;20031;-75
2021/08/29 13:09:28;;;;;;;6.45;5.85;;;;;;;;;;5114232;28;20024;-76
2021/08/29 13:11:54;;;;;;;6.80;6.10;;;;;;;;;;5114141;28;20031;-75
2021/08/29 13:14:28;;;;;;;11.40;9.93;;;;;;;;;;5114105;28;20039;-76
2021/08/29 13:16:54;;;;;;;;;;;;;;;;;;5114409;28;20072;-75
2021/08/29 13:19:25;;;;;;;6.03;5.18;;;;;;;;;;5114114;28;20028;-77
2021/08/29 13:21:57;;;;;;;5.88;5.13;;;;;;;;;;5113992;28;20028;-78
2021/08/29 13:24:25;;;;;;;5.72;5.22;;;;;;;;;;5113933;28;20024;-76
2021/08/29 13:26:52;;;;;;;5.70;5.18;;;;;;;;;;5113373;28;20030;-76
2021/08/29 13:29:18;;;;;;;7.20;5.72;;;;;;;;;;5114027;28;20023;-78
2021/08/29 13:31:44;;;;;;;6.00;4.88;;;;;;;;;;5113851;28;20024;-75
2021/08/29 13:34:10;;;;;;;6.35;5.68;;;;;;;;;;5113967;28;20066;-77
2021/08/29 13:36:47;;;;;;;7.60;5.82;;;;;;;;;;5113877;28;20077;-76
2021/08/29 13:39:14;;;;;;;7.47;6.68;;;;;;;;;;5113570;28;20044;-76
2021/08/29 13:41:41;;;;;;;9.15;6.15;;;;;;;;;;5113989;28;20098;-74
2021/08/29 13:44:13;;;;;;;8.10;7.03;;;;;;;;;;5114037;28;20103;-76
2021/08/29 13:46:39;;;;;;;8.63;7.55;;;;;;;;;;5112639;28;20059;-77
2021/08/29 13:49:05;;;;;;;10.00;7.30;;;;;;;;;;5113836;28;20028;-79
2021/08/29 13:51:31;;;;;;;7.90;6.20;;;;;;;;;;5113756;28;20099;-76
2021/08/29 13:53:58;;;;;;;8.77;6.85;;;;;;;;;;5113447;28;20088;-76
2021/08/29 13:56:24;;;;;;;14.25;7.43;;;;;;;;;;5113910;28;20093;-76
2021/08/29 13:58:50;;;;;;;13.30;8.05;;;;;;;;;;5113594;28;20027;-76
2021/08/29 14:01:17;;;;;;;10.23;7.50;;;;;;;;;;5113813;28;20032;-77
2021/08/29 14:03:43;;;;;;;10.45;7.95;;;;;;;;;;5113563;28;20031;-77
2021/08/29 14:06:09;;;;;;;8.43;7.57;;;;;;;;;;5113652;28;20419;-78
2021/08/29 14:08:36;;;;;;;8.10;7.28;;;;;;;;;;5113502;28;20102;-76
2021/08/29 14:11:03;;;;;;;9.77;8.35;;;;;;;;;;5113609;28;20031;-76
2021/08/29 14:13:29;;;;;;;9.65;8.65;;;;;;;;;;5113508;28;20042;-74
2021/08/29 14:15:55;;;;;;;10.82;8.52;;;;;;;;;;5113502;28;20028;-76
2021/08/29 14:18:21;;;;;;;13.05;11.57;;;;;;;;;;5113459;28;20462;-76
2021/08/29 14:20:47;;;;;;;10.80;8.18;;;;;;;;;;5113518;28;20024;-80
2021/08/29 14:23:14;;;;;;;10.30;9.30;;;;;;;;;;5113376;28;20030;-75
2021/08/29 14:25:40;;;;;;;9.50;8.50;;;;;;;;;;5111772;28;20031;-77
2021/08/29 14:28:06;;;;;;;10.77;8.73;;;;;;;;;;5112394;28;20500;-75
2021/08/29 14:30:34;;;;;;;10.13;8.75;;;;;;;;;;5112093;28;20510;-76
2021/08/29 14:33:03;;;;;;;8.70;7.82;;;;;;;;;;5111959;28;20490;-76